sensor_id;sensor_type;location;lat;lon;timestamp;P1;durP1;ratioP1;P2;durP2;ratioP2
70761;SDS011;58360;0.000;0.000;2023-02-15T00:01:44;63.47;;;37.50;;
70761;SDS011;58360;0.000;0.000;2023-02-15T00:04:12;70.82;;;39.30;;
70761;SDS011;58360;0.000;0.000;2023-02-15T00:06:39;72.85;;;40.15;;
70761;SDS011;58360;0.000;0.000;2023-02-15T00:09:05;77.78;;;40.47;;
70761;SDS011;58360;0.000;0.000;2023-02-15T00:11:31;78.10;;;40.75;;
70761;SDS011;58360;0.000;0.000;2023-02-15T00:14:07;75.50;;;38.70;;
70761;SDS011;58360;0.000;0.000;2023-02-15T00:16:40;74.68;;;39.78;;
70761;SDS011;58360;0.000;0.000;2023-02-15T00:19:08;68.93;;;38.90;;
70761;SDS011;58360;0.000;0.000;2023-02-15T00:21:35;71.93;;;40.67;;
70761;SDS011;58360;0.000;0.000;2023-02-15T00:24:02;75.43;;;41.70;;
70761;SDS011;58360;0.000;0.000;2023-02-15T00:26:30;76.88;;;43.22;;
70761;SDS011;58360;0.000;0.000;2023-02-15T00:28:56;76.72;;;41.10;;
70761;SDS011;58360;0.000;0.000;2023-02-15T00:31:25;70.25;;;40.95;;
70761;SDS011;58360;0.000;0.000;2023-02-15T00:33:53;78.47;;;41.53;;
70761;SDS011;58360;0.000;0.000;2023-02-15T00:36:18;77.35;;;41.75;;
70761;SDS011;58360;0.000;0.000;2023-02-15T00:38:44;82.63;;;44.33;;
70761;SDS011;58360;0.000;0.000;2023-02-15T00:41:10;79.68;;;43.10;;
70761;SDS011;58360;0.000;0.000;2023-02-15T00:43:35;84.10;;;44.72;;
70761;SDS011;58360;0.000;0.000;2023-02-15T00:46:02;85.60;;;42.55;;
70761;SDS011;58360;0.000;0.000;2023-02-15T00:48:29;73.43;;;39.90;;
70761;SDS011;58360;0.000;0.000;2023-02-15T00:50:56;71.30;;;38.92;;
70761;SDS011;58360;0.000;0.000;2023-02-15T00:53:23;71.45;;;39.45;;
70761;SDS011;58360;0.000;0.000;2023-02-15T00:55:49;75.68;;;40.05;;
70761;SDS011;58360;0.000;0.000;2023-02-15T00:58:15;75.55;;;39.65;;
70761;SDS011;58360;0.000;0.000;2023-02-15T01:00:43;73.43;;;39.72;;
70761;SDS011;58360;0.000;0.000;2023-02-15T01:03:10;79.55;;;40.40;;
70761;SDS011;58360;0.000;0.000;2023-02-15T01:05:37;72.22;;;40.42;;
70761;SDS011;58360;0.000;0.000;2023-02-15T01:08:03;77.18;;;39.53;;
70761;SDS011;58360;0.000;0.000;2023-02-15T01:10:29;70.20;;;39.25;;
70761;SDS011;58360;0.000;0.000;2023-02-15T01:12:55;75.32;;;40.30;;
70761;SDS011;58360;0.000;0.000;2023-02-15T01:15:22;80.22;;;40.88;;
70761;SDS011;58360;0.000;0.000;2023-02-15T01:17:48;70.50;;;40.08;;
70761;SDS011;58360;0.000;0.000;2023-02-15T01:20:22;74.78;;;39.67;;
70761;SDS011;58360;0.000;0.000;2023-02-15T01:22:50;79.00;;;38.88;;
70761;SDS011;58360;0.000;0.000;2023-02-15T01:25:16;70.70;;;37.83;;
70761;SDS011;58360;0.000;0.000;2023-02-15T01:27:43;71.35;;;38.42;;
70761;SDS011;58360;0.000;0.000;2023-02-15T01:30:09;73.30;;;37.45;;
70761;SDS011;58360;0.000;0.000;2023-02-15T01:32:35;72.60;;;37.90;;
70761;SDS011;58360;0.000;0.000;2023-02-15T01:35:01;73.50;;;38.33;;
70761;SDS011;58360;0.000;0.000;2023-02-15T01:37:29;77.65;;;38.72;;
70761;SDS011;58360;0.000;0.000;2023-02-15T01:39:56;76.20;;;38.95;;
70761;SDS011;58360;0.000;0.000;2023-02-15T01:42:22;75.22;;;39.25;;
70761;SDS011;58360;0.000;0.000;2023-02-15T01:44:53;83.15;;;39.95;;
70761;SDS011;58360;0.000;0.000;2023-02-15T01:52:39;74.13;;;36.88;;
70761;SDS011;58360;0.000;0.000;2023-02-15T01:55:10;68.47;;;36.97;;
70761;SDS011;58360;0.000;0.000;2023-02-15T01:57:37;69.32;;;36.10;;
70761;SDS011;58360;0.000;0.000;2023-02-15T02:00:19;67.75;;;36.63;;
70761;SDS011;58360;0.000;0.000;2023-02-15T02:02:47;75.82;;;37.78;;
70761;SDS011;58360;0.000;0.000;2023-02-15T02:05:15;71.47;;;38.17;;
70761;SDS011;58360;0.000;0.000;2023-02-15T02:07:42;66.20;;;35.78;;
70761;SDS011;58360;0.000;0.000;2023-02-15T02:10:12;64.28;;;37.63;;
70761;SDS011;58360;0.000;0.000;2023-02-15T02:12:40;74.65;;;38.95;;
70761;SDS011;58360;0.000;0.000;2023-02-15T02:15:08;73.22;;;38.17;;
70761;SDS011;58360;0.000;0.000;2023-02-15T02:23:32;68.70;;;36.58;;
70761;SDS011;58360;0.000;0.000;2023-02-15T02:37:36;69.45;;;36.80;;
70761;SDS011;58360;0.000;0.000;2023-02-15T02:42:56;81.25;;;38.92;;
70761;SDS011;58360;0.000;0.000;2023-02-15T02:45:39;66.20;;;38.25;;
70761;SDS011;58360;0.000;0.000;2023-02-15T02:48:29;68.93;;;37.67;;
70761;SDS011;58360;0.000;0.000;2023-02-15T02:50:57;85.47;;;41.55;;
70761;SDS011;58360;0.000;0.000;2023-02-15T02:53:23;77.22;;;37.95;;
70761;SDS011;58360;0.000;0.000;2023-02-15T02:55:50;76.80;;;38.10;;
70761;SDS011;58360;0.000;0.000;2023-02-15T02:58:24;73.20;;;38.70;;
70761;SDS011;58360;0.000;0.000;2023-02-15T03:01:08;75.05;;;38.42;;
70761;SDS011;58360;0.000;0.000;2023-02-15T03:03:40;73.05;;;37.83;;
70761;SDS011;58360;0.000;0.000;2023-02-15T03:06:11;75.68;;;37.75;;
70761;SDS011;58360;0.000;0.000;2023-02-15T03:08:48;81.43;;;39.22;;
70761;SDS011;58360;0.000;0.000;2023-02-15T03:11:22;73.57;;;36.67;;
70761;SDS011;58360;0.000;0.000;2023-02-15T03:13:48;75.88;;;37.85;;
70761;SDS011;58360;0.000;0.000;2023-02-15T03:16:14;69.75;;;37.95;;
70761;SDS011;58360;0.000;0.000;2023-02-15T03:19:06;74.40;;;39.35;;
70761;SDS011;58360;0.000;0.000;2023-02-15T03:21:38;70.10;;;37.08;;
70761;SDS011;58360;0.000;0.000;2023-02-15T03:24:15;75.05;;;38.13;;
70761;SDS011;58360;0.000;0.000;2023-02-15T03:26:46;77.70;;;38.00;;
70761;SDS011;58360;0.000;0.000;2023-02-15T03:29:15;78.65;;;38.70;;
70761;SDS011;58360;0.000;0.000;2023-02-15T03:31:42;77.63;;;39.35;;
70761;SDS011;58360;0.000;0.000;2023-02-15T03:34:12;71.72;;;38.30;;
70761;SDS011;58360;0.000;0.000;2023-02-15T03:36:48;79.07;;;39.15;;
70761;SDS011;58360;0.000;0.000;2023-02-15T03:44:31;82.60;;;38.60;;
70761;SDS011;58360;0.000;0.000;2023-02-15T03:47:15;79.30;;;40.72;;
70761;SDS011;58360;0.000;0.000;2023-02-15T03:49:50;77.93;;;38.50;;
70761;SDS011;58360;0.000;0.000;2023-02-15T03:52:20;80.32;;;37.33;;
70761;SDS011;58360;0.000;0.000;2023-02-15T03:54:48;74.75;;;38.20;;
70761;SDS011;58360;0.000;0.000;2023-02-15T03:57:25;74.65;;;36.13;;
70761;SDS011;58360;0.000;0.000;2023-02-15T04:03:16;69.30;;;37.77;;
70761;SDS011;58360;0.000;0.000;2023-02-15T04:05:52;65.38;;;36.10;;
70761;SDS011;58360;0.000;0.000;2023-02-15T04:08:17;69.88;;;35.47;;
70761;SDS011;58360;0.000;0.000;2023-02-15T04:10:43;74.18;;;37.22;;
70761;SDS011;58360;0.000;0.000;2023-02-15T04:13:18;71.93;;;36.58;;
70761;SDS011;58360;0.000;0.000;2023-02-15T04:15:48;66.78;;;35.28;;
70761;SDS011;58360;0.000;0.000;2023-02-15T04:18:33;76.72;;;39.45;;
70761;SDS011;58360;0.000;0.000;2023-02-15T04:21:19;70.60;;;36.08;;
70761;SDS011;58360;0.000;0.000;2023-02-15T04:24:05;67.85;;;35.63;;
70761;SDS011;58360;0.000;0.000;2023-02-15T04:26:49;79.38;;;39.40;;
70761;SDS011;58360;0.000;0.000;2023-02-15T04:29:18;69.72;;;36.70;;
70761;SDS011;58360;0.000;0.000;2023-02-15T04:31:47;73.78;;;38.05;;
70761;SDS011;58360;0.000;0.000;2023-02-15T04:34:13;71.68;;;37.50;;
70761;SDS011;58360;0.000;0.000;2023-02-15T04:36:39;63.15;;;34.75;;
70761;SDS011;58360;0.000;0.000;2023-02-15T04:39:06;67.35;;;36.50;;
70761;SDS011;58360;0.000;0.000;2023-02-15T04:41:32;65.97;;;35.40;;
70761;SDS011;58360;0.000;0.000;2023-02-15T04:43:58;73.45;;;37.60;;
70761;SDS011;58360;0.000;0.000;2023-02-15T04:46:25;70.60;;;35.95;;
70761;SDS011;58360;0.000;0.000;2023-02-15T04:48:51;71.15;;;34.53;;
70761;SDS011;58360;0.000;0.000;2023-02-15T04:51:17;74.35;;;37.22;;
70761;SDS011;58360;0.000;0.000;2023-02-15T04:53:43;76.78;;;37.67;;
70761;SDS011;58360;0.000;0.000;2023-02-15T04:56:08;63.60;;;36.00;;
70761;SDS011;58360;0.000;0.000;2023-02-15T04:58:34;69.63;;;36.15;;
70761;SDS011;58360;0.000;0.000;2023-02-15T05:01:01;67.75;;;35.35;;
70761;SDS011;58360;0.000;0.000;2023-02-15T05:03:28;68.32;;;34.72;;
70761;SDS011;58360;0.000;0.000;2023-02-15T05:05:54;73.25;;;36.80;;
70761;SDS011;58360;0.000;0.000;2023-02-15T05:08:19;64.03;;;34.63;;
70761;SDS011;58360;0.000;0.000;2023-02-15T05:10:47;76.28;;;37.05;;
70761;SDS011;58360;0.000;0.000;2023-02-15T05:13:13;73.10;;;35.25;;
70761;SDS011;58360;0.000;0.000;2023-02-15T05:15:39;75.47;;;35.85;;
70761;SDS011;58360;0.000;0.000;2023-02-15T05:18:05;70.95;;;34.80;;
70761;SDS011;58360;0.000;0.000;2023-02-15T05:20:32;70.68;;;34.17;;
70761;SDS011;58360;0.000;0.000;2023-02-15T05:22:58;64.32;;;33.25;;
70761;SDS011;58360;0.000;0.000;2023-02-15T05:25:24;66.45;;;36.10;;
70761;SDS011;58360;0.000;0.000;2023-02-15T05:28:10;73.97;;;35.22;;
70761;SDS011;58360;0.000;0.000;2023-02-15T05:30:48;62.63;;;33.00;;
70761;SDS011;58360;0.000;0.000;2023-02-15T05:33:33;71.68;;;35.88;;
70761;SDS011;58360;0.000;0.000;2023-02-15T05:36:00;69.85;;;34.10;;
70761;SDS011;58360;0.000;0.000;2023-02-15T05:38:25;62.83;;;32.97;;
70761;SDS011;58360;0.000;0.000;2023-02-15T05:40:51;73.78;;;35.65;;
70761;SDS011;58360;0.000;0.000;2023-02-15T05:43:18;74.82;;;36.33;;
70761;SDS011;58360;0.000;0.000;2023-02-15T05:45:47;63.28;;;34.85;;
70761;SDS011;58360;0.000;0.000;2023-02-15T05:48:15;76.22;;;36.97;;
70761;SDS011;58360;0.000;0.000;2023-02-15T05:50:41;68.35;;;35.80;;
70761;SDS011;58360;0.000;0.000;2023-02-15T05:53:07;69.38;;;34.92;;
70761;SDS011;58360;0.000;0.000;2023-02-15T05:55:33;69.53;;;35.28;;
70761;SDS011;58360;0.000;0.000;2023-02-15T05:57:58;71.28;;;35.83;;
70761;SDS011;58360;0.000;0.000;2023-02-15T06:00:24;65.95;;;33.13;;
70761;SDS011;58360;0.000;0.000;2023-02-15T06:02:50;71.45;;;34.80;;
70761;SDS011;58360;0.000;0.000;2023-02-15T06:05:16;64.20;;;33.65;;
70761;SDS011;58360;0.000;0.000;2023-02-15T06:07:44;79.20;;;38.95;;
70761;SDS011;58360;0.000;0.000;2023-02-15T06:10:10;69.38;;;35.47;;
70761;SDS011;58360;0.000;0.000;2023-02-15T06:12:36;71.63;;;36.17;;
70761;SDS011;58360;0.000;0.000;2023-02-15T06:15:02;63.38;;;34.40;;
70761;SDS011;58360;0.000;0.000;2023-02-15T06:17:29;69.25;;;34.38;;
70761;SDS011;58360;0.000;0.000;2023-02-15T06:19:54;65.25;;;34.17;;
70761;SDS011;58360;0.000;0.000;2023-02-15T06:22:20;70.93;;;34.13;;
70761;SDS011;58360;0.000;0.000;2023-02-15T06:24:46;67.82;;;33.38;;
70761;SDS011;58360;0.000;0.000;2023-02-15T06:27:12;71.32;;;32.67;;
70761;SDS011;58360;0.000;0.000;2023-02-15T06:29:38;64.22;;;32.70;;
70761;SDS011;58360;0.000;0.000;2023-02-15T06:32:04;66.78;;;32.10;;
70761;SDS011;58360;0.000;0.000;2023-02-15T06:34:30;64.22;;;31.08;;
70761;SDS011;58360;0.000;0.000;2023-02-15T06:36:56;69.70;;;33.70;;
70761;SDS011;58360;0.000;0.000;2023-02-15T06:39:22;61.88;;;33.45;;
70761;SDS011;58360;0.000;0.000;2023-02-15T06:41:48;64.57;;;32.88;;
70761;SDS011;58360;0.000;0.000;2023-02-15T06:44:14;66.43;;;35.28;;
70761;SDS011;58360;0.000;0.000;2023-02-15T06:46:39;69.35;;;35.17;;
70761;SDS011;58360;0.000;0.000;2023-02-15T06:49:05;70.80;;;35.65;;
70761;SDS011;58360;0.000;0.000;2023-02-15T06:51:31;73.70;;;36.25;;
70761;SDS011;58360;0.000;0.000;2023-02-15T06:53:56;71.97;;;33.20;;
70761;SDS011;58360;0.000;0.000;2023-02-15T06:56:22;72.90;;;34.35;;
70761;SDS011;58360;0.000;0.000;2023-02-15T06:58:48;72.22;;;34.28;;
70761;SDS011;58360;0.000;0.000;2023-02-15T07:01:14;68.22;;;32.75;;
70761;SDS011;58360;0.000;0.000;2023-02-15T07:03:41;73.93;;;32.28;;
70761;SDS011;58360;0.000;0.000;2023-02-15T07:06:07;72.72;;;30.45;;
70761;SDS011;58360;0.000;0.000;2023-02-15T07:08:34;73.68;;;32.85;;
70761;SDS011;58360;0.000;0.000;2023-02-15T07:11:00;65.00;;;31.42;;
70761;SDS011;58360;0.000;0.000;2023-02-15T07:13:45;66.75;;;33.55;;
70761;SDS011;58360;0.000;0.000;2023-02-15T07:16:12;74.93;;;34.00;;
70761;SDS011;58360;0.000;0.000;2023-02-15T07:18:38;67.75;;;31.67;;
70761;SDS011;58360;0.000;0.000;2023-02-15T07:21:04;73.72;;;35.50;;
70761;SDS011;58360;0.000;0.000;2023-02-15T07:23:34;56.40;;;29.13;;
70761;SDS011;58360;0.000;0.000;2023-02-15T07:26:00;65.68;;;30.35;;
70761;SDS011;58360;0.000;0.000;2023-02-15T07:28:26;70.97;;;30.85;;
70761;SDS011;58360;0.000;0.000;2023-02-15T07:30:53;63.97;;;30.17;;
70761;SDS011;58360;0.000;0.000;2023-02-15T07:33:19;59.67;;;29.55;;
70761;SDS011;58360;0.000;0.000;2023-02-15T07:35:52;60.75;;;31.50;;
70761;SDS011;58360;0.000;0.000;2023-02-15T07:38:19;66.15;;;31.05;;
70761;SDS011;58360;0.000;0.000;2023-02-15T07:40:46;65.30;;;31.77;;
70761;SDS011;58360;0.000;0.000;2023-02-15T07:43:12;66.72;;;33.00;;
70761;SDS011;58360;0.000;0.000;2023-02-15T07:45:38;60.75;;;33.65;;
70761;SDS011;58360;0.000;0.000;2023-02-15T07:48:05;60.30;;;33.28;;
70761;SDS011;58360;0.000;0.000;2023-02-15T07:50:31;65.85;;;32.33;;
70761;SDS011;58360;0.000;0.000;2023-02-15T07:52:57;67.18;;;33.50;;
70761;SDS011;58360;0.000;0.000;2023-02-15T07:55:23;68.65;;;34.33;;
70761;SDS011;58360;0.000;0.000;2023-02-15T07:57:50;62.03;;;32.55;;
70761;SDS011;58360;0.000;0.000;2023-02-15T08:00:17;59.63;;;31.65;;
70761;SDS011;58360;0.000;0.000;2023-02-15T08:02:48;59.47;;;32.90;;
70761;SDS011;58360;0.000;0.000;2023-02-15T08:05:34;58.65;;;31.85;;
70761;SDS011;58360;0.000;0.000;2023-02-15T08:08:00;63.70;;;32.63;;
70761;SDS011;58360;0.000;0.000;2023-02-15T08:10:26;64.18;;;31.50;;
70761;SDS011;58360;0.000;0.000;2023-02-15T08:13:11;66.18;;;32.08;;
70761;SDS011;58360;0.000;0.000;2023-02-15T08:15:37;64.55;;;32.50;;
70761;SDS011;58360;0.000;0.000;2023-02-15T08:18:03;62.00;;;32.15;;
70761;SDS011;58360;0.000;0.000;2023-02-15T08:20:29;65.50;;;31.55;;
70761;SDS011;58360;0.000;0.000;2023-02-15T08:22:54;62.60;;;31.80;;
70761;SDS011;58360;0.000;0.000;2023-02-15T08:25:20;60.75;;;33.60;;
70761;SDS011;58360;0.000;0.000;2023-02-15T08:27:45;62.47;;;33.15;;
70761;SDS011;58360;0.000;0.000;2023-02-15T08:30:11;62.50;;;33.33;;
70761;SDS011;58360;0.000;0.000;2023-02-15T08:32:39;61.35;;;33.50;;
70761;SDS011;58360;0.000;0.000;2023-02-15T08:35:05;60.15;;;32.42;;
70761;SDS011;58360;0.000;0.000;2023-02-15T08:37:30;56.63;;;32.75;;
70761;SDS011;58360;0.000;0.000;2023-02-15T08:39:56;58.90;;;32.75;;
70761;SDS011;58360;0.000;0.000;2023-02-15T08:42:22;63.65;;;32.97;;
70761;SDS011;58360;0.000;0.000;2023-02-15T08:44:47;60.22;;;31.73;;
70761;SDS011;58360;0.000;0.000;2023-02-15T08:47:15;66.38;;;31.63;;
70761;SDS011;58360;0.000;0.000;2023-02-15T08:49:41;61.95;;;31.98;;
70761;SDS011;58360;0.000;0.000;2023-02-15T08:52:06;56.10;;;30.02;;
70761;SDS011;58360;0.000;0.000;2023-02-15T08:54:32;60.42;;;31.70;;
70761;SDS011;58360;0.000;0.000;2023-02-15T08:56:58;53.38;;;29.65;;
70761;SDS011;58360;0.000;0.000;2023-02-15T08:59:24;65.97;;;30.52;;
70761;SDS011;58360;0.000;0.000;2023-02-15T09:01:53;61.92;;;31.02;;
70761;SDS011;58360;0.000;0.000;2023-02-15T09:04:19;51.35;;;28.50;;
70761;SDS011;58360;0.000;0.000;2023-02-15T09:06:47;54.50;;;29.38;;
70761;SDS011;58360;0.000;0.000;2023-02-15T09:09:14;57.55;;;29.45;;
70761;SDS011;58360;0.000;0.000;2023-02-15T09:11:41;50.65;;;29.23;;
70761;SDS011;58360;0.000;0.000;2023-02-15T09:14:09;55.08;;;28.30;;
70761;SDS011;58360;0.000;0.000;2023-02-15T09:16:38;55.05;;;28.77;;
70761;SDS011;58360;0.000;0.000;2023-02-15T09:19:06;54.63;;;29.13;;
70761;SDS011;58360;0.000;0.000;2023-02-15T09:21:33;50.28;;;28.02;;
70761;SDS011;58360;0.000;0.000;2023-02-15T09:24:02;51.15;;;27.05;;
70761;SDS011;58360;0.000;0.000;2023-02-15T09:26:31;52.67;;;29.27;;
70761;SDS011;58360;0.000;0.000;2023-02-15T09:28:59;53.42;;;28.98;;
70761;SDS011;58360;0.000;0.000;2023-02-15T09:31:33;52.35;;;28.02;;
70761;SDS011;58360;0.000;0.000;2023-02-15T09:34:02;55.97;;;27.90;;
70761;SDS011;58360;0.000;0.000;2023-02-15T09:36:32;51.47;;;28.23;;
70761;SDS011;58360;0.000;0.000;2023-02-15T09:39:10;52.10;;;27.73;;
70761;SDS011;58360;0.000;0.000;2023-02-15T09:44:37;54.20;;;28.30;;
70761;SDS011;58360;0.000;0.000;2023-02-15T09:50:11;48.67;;;28.55;;
70761;SDS011;58360;0.000;0.000;2023-02-15T10:09:39;53.85;;;26.92;;
70761;SDS011;58360;0.000;0.000;2023-02-15T10:37:03;49.50;;;26.63;;
70761;SDS011;58360;0.000;0.000;2023-02-15T10:39:56;51.85;;;27.27;;
70761;SDS011;58360;0.000;0.000;2023-02-15T10:50:42;50.92;;;26.67;;
70761;SDS011;58360;0.000;0.000;2023-02-15T10:53:24;58.00;;;28.67;;
70761;SDS011;58360;0.000;0.000;2023-02-15T10:58:56;50.85;;;28.48;;
70761;SDS011;58360;0.000;0.000;2023-02-15T11:01:43;52.83;;;28.63;;
70761;SDS011;58360;0.000;0.000;2023-02-15T11:06:56;48.60;;;25.90;;
70761;SDS011;58360;0.000;0.000;2023-02-15T11:09:25;61.85;;;27.50;;
70761;SDS011;58360;0.000;0.000;2023-02-15T11:12:00;45.53;;;24.23;;
70761;SDS011;58360;0.000;0.000;2023-02-15T11:14:35;48.53;;;27.33;;
70761;SDS011;58360;0.000;0.000;2023-02-15T11:17:15;60.40;;;27.67;;
70761;SDS011;58360;0.000;0.000;2023-02-15T11:22:26;53.00;;;25.48;;
70761;SDS011;58360;0.000;0.000;2023-02-15T11:24:54;47.75;;;25.77;;
70761;SDS011;58360;0.000;0.000;2023-02-15T11:27:24;53.00;;;25.73;;
70761;SDS011;58360;0.000;0.000;2023-02-15T11:35:24;49.75;;;24.70;;
70761;SDS011;58360;0.000;0.000;2023-02-15T11:37:59;52.67;;;23.67;;
70761;SDS011;58360;0.000;0.000;2023-02-15T11:46:06;46.28;;;24.52;;
70761;SDS011;58360;0.000;0.000;2023-02-15T11:48:34;45.10;;;24.38;;
70761;SDS011;58360;0.000;0.000;2023-02-15T11:51:00;47.35;;;23.73;;
70761;SDS011;58360;0.000;0.000;2023-02-15T11:53:28;51.60;;;23.83;;
70761;SDS011;58360;0.000;0.000;2023-02-15T11:56:02;50.47;;;24.20;;
70761;SDS011;58360;0.000;0.000;2023-02-15T11:58:36;46.08;;;24.13;;
70761;SDS011;58360;0.000;0.000;2023-02-15T12:01:09;43.70;;;24.67;;
70761;SDS011;58360;0.000;0.000;2023-02-15T12:03:46;43.67;;;23.10;;
70761;SDS011;58360;0.000;0.000;2023-02-15T12:06:20;49.25;;;23.65;;
70761;SDS011;58360;0.000;0.000;2023-02-15T12:09:05;47.55;;;24.00;;
70761;SDS011;58360;0.000;0.000;2023-02-15T12:11:51;47.03;;;24.42;;
70761;SDS011;58360;0.000;0.000;2023-02-15T12:14:17;46.00;;;23.50;;
70761;SDS011;58360;0.000;0.000;2023-02-15T12:16:44;47.60;;;24.73;;
70761;SDS011;58360;0.000;0.000;2023-02-15T12:21:53;43.88;;;23.27;;
70761;SDS011;58360;0.000;0.000;2023-02-15T12:29:52;44.70;;;23.92;;
70761;SDS011;58360;0.000;0.000;2023-02-15T12:32:28;45.17;;;23.67;;
70761;SDS011;58360;0.000;0.000;2023-02-15T12:35:02;42.17;;;22.77;;
70761;SDS011;58360;0.000;0.000;2023-02-15T12:37:32;41.90;;;23.20;;
70761;SDS011;58360;0.000;0.000;2023-02-15T12:40:00;46.63;;;24.17;;
70761;SDS011;58360;0.000;0.000;2023-02-15T12:42:28;47.13;;;23.90;;
70761;SDS011;58360;0.000;0.000;2023-02-15T12:45:23;49.03;;;25.40;;
70761;SDS011;58360;0.000;0.000;2023-02-15T12:48:12;45.50;;;25.08;;
70761;SDS011;58360;0.000;0.000;2023-02-15T12:50:43;51.22;;;24.67;;
70761;SDS011;58360;0.000;0.000;2023-02-15T12:55:55;45.03;;;23.88;;
70761;SDS011;58360;0.000;0.000;2023-02-15T12:58:23;48.58;;;25.10;;
70761;SDS011;58360;0.000;0.000;2023-02-15T13:03:35;46.30;;;25.08;;
70761;SDS011;58360;0.000;0.000;2023-02-15T13:06:03;44.80;;;25.15;;
70761;SDS011;58360;0.000;0.000;2023-02-15T13:08:53;46.45;;;24.95;;
70761;SDS011;58360;0.000;0.000;2023-02-15T13:11:31;46.90;;;24.90;;
70761;SDS011;58360;0.000;0.000;2023-02-15T13:14:03;47.80;;;26.08;;
70761;SDS011;58360;0.000;0.000;2023-02-15T13:16:41;45.67;;;23.95;;
70761;SDS011;58360;0.000;0.000;2023-02-15T13:19:15;43.05;;;23.50;;
70761;SDS011;58360;0.000;0.000;2023-02-15T13:21:44;43.53;;;24.13;;
70761;SDS011;58360;0.000;0.000;2023-02-15T13:24:28;45.00;;;25.27;;
70761;SDS011;58360;0.000;0.000;2023-02-15T13:26:58;44.42;;;24.55;;
70761;SDS011;58360;0.000;0.000;2023-02-15T13:29:29;45.85;;;24.15;;
70761;SDS011;58360;0.000;0.000;2023-02-15T13:34:28;44.88;;;24.13;;
70761;SDS011;58360;0.000;0.000;2023-02-15T13:39:41;43.60;;;23.50;;
70761;SDS011;58360;0.000;0.000;2023-02-15T13:50:28;43.47;;;23.92;;
70761;SDS011;58360;0.000;0.000;2023-02-15T13:56:04;46.53;;;24.63;;
70761;SDS011;58360;0.000;0.000;2023-02-15T13:59:15;40.30;;;22.75;;
70761;SDS011;58360;0.000;0.000;2023-02-15T14:21:43;45.80;;;25.25;;
70761;SDS011;58360;0.000;0.000;2023-02-15T14:32:18;43.08;;;24.88;;
70761;SDS011;58360;0.000;0.000;2023-02-15T14:34:56;43.45;;;24.63;;
70761;SDS011;58360;0.000;0.000;2023-02-15T14:37:28;50.13;;;25.75;;
70761;SDS011;58360;0.000;0.000;2023-02-15T14:43:42;44.10;;;24.70;;
70761;SDS011;58360;0.000;0.000;2023-02-15T14:45:55;47.22;;;25.42;;
70761;SDS011;58360;0.000;0.000;2023-02-15T14:48:25;46.80;;;25.83;;
70761;SDS011;58360;0.000;0.000;2023-02-15T14:50:56;44.47;;;25.92;;
70761;SDS011;58360;0.000;0.000;2023-02-15T14:53:22;45.22;;;25.70;;
70761;SDS011;58360;0.000;0.000;2023-02-15T14:58:36;48.97;;;26.65;;
70761;SDS011;58360;0.000;0.000;2023-02-15T15:01:06;42.38;;;25.13;;
70761;SDS011;58360;0.000;0.000;2023-02-15T15:03:33;42.90;;;24.77;;
70761;SDS011;58360;0.000;0.000;2023-02-15T15:06:01;43.20;;;26.08;;
70761;SDS011;58360;0.000;0.000;2023-02-15T15:08:31;42.78;;;25.42;;
70761;SDS011;58360;0.000;0.000;2023-02-15T15:19:11;50.90;;;26.60;;
70761;SDS011;58360;0.000;0.000;2023-02-15T15:22:02;43.35;;;26.55;;
70761;SDS011;58360;0.000;0.000;2023-02-15T15:35:37;45.40;;;25.80;;
70761;SDS011;58360;0.000;0.000;2023-02-15T15:38:31;47.85;;;25.73;;
70761;SDS011;58360;0.000;0.000;2023-02-15T15:49:19;50.08;;;26.70;;
70761;SDS011;58360;0.000;0.000;2023-02-15T15:51:46;46.72;;;26.30;;
70761;SDS011;58360;0.000;0.000;2023-02-15T15:54:17;46.80;;;25.83;;
70761;SDS011;58360;0.000;0.000;2023-02-15T15:56:49;46.35;;;26.13;;
70761;SDS011;58360;0.000;0.000;2023-02-15T15:59:25;51.65;;;27.15;;
70761;SDS011;58360;0.000;0.000;2023-02-15T16:01:53;51.75;;;29.17;;
70761;SDS011;58360;0.000;0.000;2023-02-15T16:04:25;44.58;;;25.55;;
70761;SDS011;58360;0.000;0.000;2023-02-15T16:06:53;44.78;;;24.92;;
70761;SDS011;58360;0.000;0.000;2023-02-15T16:09:23;47.28;;;25.67;;
70761;SDS011;58360;0.000;0.000;2023-02-15T16:11:54;45.80;;;26.17;;
70761;SDS011;58360;0.000;0.000;2023-02-15T16:17:04;45.55;;;27.05;;
70761;SDS011;58360;0.000;0.000;2023-02-15T16:19:39;49.72;;;27.40;;
70761;SDS011;58360;0.000;0.000;2023-02-15T16:22:11;46.05;;;26.42;;
70761;SDS011;58360;0.000;0.000;2023-02-15T16:27:43;50.88;;;25.83;;
70761;SDS011;58360;0.000;0.000;2023-02-15T16:32:47;46.17;;;25.60;;
70761;SDS011;58360;0.000;0.000;2023-02-15T16:35:17;50.95;;;27.17;;
70761;SDS011;58360;0.000;0.000;2023-02-15T16:37:44;49.92;;;27.95;;
70761;SDS011;58360;0.000;0.000;2023-02-15T16:42:49;48.20;;;27.85;;
70761;SDS011;58360;0.000;0.000;2023-02-15T16:45:22;46.40;;;26.17;;
70761;SDS011;58360;0.000;0.000;2023-02-15T16:47:51;49.50;;;26.20;;
70761;SDS011;58360;0.000;0.000;2023-02-15T16:50:20;46.83;;;27.35;;
70761;SDS011;58360;0.000;0.000;2023-02-15T16:52:58;52.53;;;27.27;;
70761;SDS011;58360;0.000;0.000;2023-02-15T16:55:26;53.75;;;27.75;;
70761;SDS011;58360;0.000;0.000;2023-02-15T16:58:04;49.50;;;28.08;;
70761;SDS011;58360;0.000;0.000;2023-02-15T17:00:32;52.92;;;27.77;;
70761;SDS011;58360;0.000;0.000;2023-02-15T17:05:45;54.63;;;27.77;;
70761;SDS011;58360;0.000;0.000;2023-02-15T17:11:04;65.35;;;29.92;;
70761;SDS011;58360;0.000;0.000;2023-02-15T17:16:50;58.70;;;28.75;;
70761;SDS011;58360;0.000;0.000;2023-02-15T17:20:01;60.75;;;29.08;;
70761;SDS011;58360;0.000;0.000;2023-02-15T17:22:16;61.75;;;30.83;;
70761;SDS011;58360;0.000;0.000;2023-02-15T17:24:45;55.08;;;29.15;;
70761;SDS011;58360;0.000;0.000;2023-02-15T17:27:23;60.70;;;31.50;;
70761;SDS011;58360;0.000;0.000;2023-02-15T17:29:51;58.35;;;29.88;;
70761;SDS011;58360;0.000;0.000;2023-02-15T17:32:23;58.60;;;31.50;;
70761;SDS011;58360;0.000;0.000;2023-02-15T17:34:57;62.42;;;32.55;;
70761;SDS011;58360;0.000;0.000;2023-02-15T17:40:14;62.85;;;32.33;;
70761;SDS011;58360;0.000;0.000;2023-02-15T17:42:42;59.58;;;29.90;;
70761;SDS011;58360;0.000;0.000;2023-02-15T17:45:08;57.38;;;30.55;;
70761;SDS011;58360;0.000;0.000;2023-02-15T17:47:33;75.20;;;36.53;;
70761;SDS011;58360;0.000;0.000;2023-02-15T17:50:00;61.65;;;32.22;;
70761;SDS011;58360;0.000;0.000;2023-02-15T17:52:28;63.50;;;33.08;;
70761;SDS011;58360;0.000;0.000;2023-02-15T17:54:55;66.85;;;32.50;;
70761;SDS011;58360;0.000;0.000;2023-02-15T17:57:40;60.03;;;32.63;;
70761;SDS011;58360;0.000;0.000;2023-02-15T18:00:06;54.03;;;31.95;;
70761;SDS011;58360;0.000;0.000;2023-02-15T18:02:51;53.92;;;29.95;;
70761;SDS011;58360;0.000;0.000;2023-02-15T18:05:36;63.63;;;33.72;;
70761;SDS011;58360;0.000;0.000;2023-02-15T18:08:22;57.47;;;32.88;;
70761;SDS011;58360;0.000;0.000;2023-02-15T18:11:10;62.67;;;34.45;;
70761;SDS011;58360;0.000;0.000;2023-02-15T18:13:55;65.93;;;31.88;;
70761;SDS011;58360;0.000;0.000;2023-02-15T18:16:26;65.97;;;33.78;;
70761;SDS011;58360;0.000;0.000;2023-02-15T18:18:54;64.07;;;31.98;;
70761;SDS011;58360;0.000;0.000;2023-02-15T18:21:22;58.35;;;32.25;;
70761;SDS011;58360;0.000;0.000;2023-02-15T18:23:48;58.72;;;32.53;;
70761;SDS011;58360;0.000;0.000;2023-02-15T18:26:18;65.57;;;35.63;;
70761;SDS011;58360;0.000;0.000;2023-02-15T18:28:45;60.42;;;33.75;;
70761;SDS011;58360;0.000;0.000;2023-02-15T18:31:11;64.75;;;33.92;;
70761;SDS011;58360;0.000;0.000;2023-02-15T18:33:40;61.63;;;34.08;;
70761;SDS011;58360;0.000;0.000;2023-02-15T18:36:11;70.05;;;34.13;;